sensor_id;sensor_type;location;lat;lon;timestamp;P1;durP1;ratioP1;P2;durP2;ratioP2
23394;SDS011;11870;53.084;18.206;2023-04-25T00:01:53;6.50;;;4.40;;
23394;SDS011;11870;53.084;18.206;2023-04-25T00:04:19;6.15;;;4.57;;
23394;SDS011;11870;53.084;18.206;2023-04-25T00:06:47;7.68;;;4.93;;
23394;SDS011;11870;53.084;18.206;2023-04-25T00:09:13;8.52;;;5.05;;
23394;SDS011;11870;53.084;18.206;2023-04-25T00:11:40;7.28;;;5.30;;
23394;SDS011;11870;53.084;18.206;2023-04-25T00:14:07;7.63;;;6.15;;
23394;SDS011;11870;53.084;18.206;2023-04-25T00:16:33;9.70;;;6.65;;
23394;SDS011;11870;53.084;18.206;2023-04-25T00:19:01;7.82;;;5.82;;
23394;SDS011;11870;53.084;18.206;2023-04-25T00:21:28;9.63;;;6.30;;
23394;SDS011;11870;53.084;18.206;2023-04-25T00:23:57;9.40;;;6.13;;
23394;SDS011;11870;53.084;18.206;2023-04-25T00:26:23;11.07;;;6.15;;
23394;SDS011;11870;53.084;18.206;2023-04-25T00:28:50;9.82;;;6.32;;
23394;SDS011;11870;53.084;18.206;2023-04-25T00:31:16;10.18;;;7.18;;
23394;SDS011;11870;53.084;18.206;2023-04-25T00:33:43;11.13;;;6.88;;
23394;SDS011;11870;53.084;18.206;2023-04-25T00:36:09;9.93;;;6.57;;
23394;SDS011;11870;53.084;18.206;2023-04-25T00:38:35;10.23;;;6.47;;
23394;SDS011;11870;53.084;18.206;2023-04-25T00:41:06;8.63;;;6.18;;
23394;SDS011;11870;53.084;18.206;2023-04-25T00:43:32;8.32;;;5.70;;
23394;SDS011;11870;53.084;18.206;2023-04-25T00:46:00;8.88;;;5.68;;
23394;SDS011;11870;53.084;18.206;2023-04-25T00:48:26;10.90;;;6.00;;
23394;SDS011;11870;53.084;18.206;2023-04-25T00:51:06;9.38;;;5.35;;
23394;SDS011;11870;53.084;18.206;2023-04-25T00:53:32;8.82;;;5.03;;
23394;SDS011;11870;53.084;18.206;2023-04-25T00:55:58;7.13;;;5.38;;
23394;SDS011;11870;53.084;18.206;2023-04-25T00:58:24;7.28;;;4.95;;
23394;SDS011;11870;53.084;18.206;2023-04-25T01:00:51;6.47;;;4.78;;
23394;SDS011;11870;53.084;18.206;2023-04-25T01:03:17;7.63;;;5.00;;
23394;SDS011;11870;53.084;18.206;2023-04-25T01:05:46;6.95;;;4.60;;
23394;SDS011;11870;53.084;18.206;2023-04-25T01:08:13;5.70;;;4.68;;
23394;SDS011;11870;53.084;18.206;2023-04-25T01:10:40;10.75;;;4.95;;
23394;SDS011;11870;53.084;18.206;2023-04-25T01:13:06;6.38;;;5.05;;
23394;SDS011;11870;53.084;18.206;2023-04-25T01:15:32;9.02;;;4.88;;
23394;SDS011;11870;53.084;18.206;2023-04-25T01:17:58;7.00;;;4.93;;
23394;SDS011;11870;53.084;18.206;2023-04-25T01:20:26;7.82;;;5.10;;
23394;SDS011;11870;53.084;18.206;2023-04-25T01:22:54;6.70;;;4.18;;
23394;SDS011;11870;53.084;18.206;2023-04-25T01:25:21;5.53;;;4.63;;
23394;SDS011;11870;53.084;18.206;2023-04-25T01:27:47;7.22;;;4.68;;
23394;SDS011;11870;53.084;18.206;2023-04-25T01:30:13;6.97;;;4.97;;
23394;SDS011;11870;53.084;18.206;2023-04-25T01:32:41;6.63;;;4.55;;
23394;SDS011;11870;53.084;18.206;2023-04-25T01:35:09;9.35;;;4.47;;
23394;SDS011;11870;53.084;18.206;2023-04-25T01:37:40;9.23;;;4.85;;
23394;SDS011;11870;53.084;18.206;2023-04-25T01:40:08;6.03;;;4.63;;
23394;SDS011;11870;53.084;18.206;2023-04-25T01:42:35;7.53;;;4.50;;
23394;SDS011;11870;53.084;18.206;2023-04-25T01:45:04;8.52;;;4.85;;
23394;SDS011;11870;53.084;18.206;2023-04-25T01:47:31;7.22;;;4.53;;
23394;SDS011;11870;53.084;18.206;2023-04-25T01:49:56;6.97;;;4.57;;
23394;SDS011;11870;53.084;18.206;2023-04-25T01:52:23;5.70;;;4.18;;
23394;SDS011;11870;53.084;18.206;2023-04-25T01:54:48;8.50;;;4.63;;
23394;SDS011;11870;53.084;18.206;2023-04-25T01:57:16;10.18;;;5.03;;
23394;SDS011;11870;53.084;18.206;2023-04-25T01:59:42;9.48;;;5.00;;
23394;SDS011;11870;53.084;18.206;2023-04-25T02:02:09;5.40;;;4.00;;
23394;SDS011;11870;53.084;18.206;2023-04-25T02:04:35;7.63;;;4.60;;
23394;SDS011;11870;53.084;18.206;2023-04-25T02:07:01;7.75;;;4.45;;
23394;SDS011;11870;53.084;18.206;2023-04-25T02:09:27;7.03;;;4.60;;
23394;SDS011;11870;53.084;18.206;2023-04-25T02:11:53;5.53;;;4.40;;
23394;SDS011;11870;53.084;18.206;2023-04-25T02:14:18;6.10;;;4.43;;
23394;SDS011;11870;53.084;18.206;2023-04-25T02:16:45;7.10;;;4.68;;
23394;SDS011;11870;53.084;18.206;2023-04-25T02:19:11;6.63;;;4.22;;
23394;SDS011;11870;53.084;18.206;2023-04-25T02:21:37;5.15;;;3.85;;
23394;SDS011;11870;53.084;18.206;2023-04-25T02:24:03;5.82;;;4.15;;
23394;SDS011;11870;53.084;18.206;2023-04-25T02:26:30;5.78;;;4.07;;
23394;SDS011;11870;53.084;18.206;2023-04-25T02:28:56;6.13;;;4.35;;
23394;SDS011;11870;53.084;18.206;2023-04-25T02:31:22;5.50;;;4.15;;
23394;SDS011;11870;53.084;18.206;2023-04-25T02:33:48;5.78;;;4.15;;
23394;SDS011;11870;53.084;18.206;2023-04-25T02:36:15;5.93;;;3.95;;
23394;SDS011;11870;53.084;18.206;2023-04-25T02:38:41;7.72;;;3.80;;
23394;SDS011;11870;53.084;18.206;2023-04-25T02:41:07;4.25;;;3.42;;
23394;SDS011;11870;53.084;18.206;2023-04-25T02:43:32;6.18;;;3.35;;
23394;SDS011;11870;53.084;18.206;2023-04-25T02:45:59;5.15;;;3.80;;
23394;SDS011;11870;53.084;18.206;2023-04-25T02:48:24;4.15;;;3.20;;
23394;SDS011;11870;53.084;18.206;2023-04-25T02:50:50;6.20;;;3.35;;
23394;SDS011;11870;53.084;18.206;2023-04-25T02:53:16;4.65;;;3.67;;
23394;SDS011;11870;53.084;18.206;2023-04-25T02:55:42;3.83;;;3.33;;
23394;SDS011;11870;53.084;18.206;2023-04-25T02:58:08;7.57;;;3.58;;
23394;SDS011;11870;53.084;18.206;2023-04-25T03:00:34;8.57;;;3.45;;
23394;SDS011;11870;53.084;18.206;2023-04-25T03:03:00;4.40;;;2.92;;
23394;SDS011;11870;53.084;18.206;2023-04-25T03:05:26;6.72;;;3.00;;
23394;SDS011;11870;53.084;18.206;2023-04-25T03:07:52;6.95;;;3.28;;
23394;SDS011;11870;53.084;18.206;2023-04-25T03:10:18;6.03;;;3.08;;
23394;SDS011;11870;53.084;18.206;2023-04-25T03:12:43;6.20;;;2.90;;
23394;SDS011;11870;53.084;18.206;2023-04-25T03:15:10;3.13;;;2.63;;
23394;SDS011;11870;53.084;18.206;2023-04-25T03:17:35;4.22;;;2.42;;
23394;SDS011;11870;53.084;18.206;2023-04-25T03:20:02;3.80;;;2.63;;
23394;SDS011;11870;53.084;18.206;2023-04-25T03:22:29;4.10;;;2.80;;
23394;SDS011;11870;53.084;18.206;2023-04-25T03:24:55;4.85;;;2.33;;
23394;SDS011;11870;53.084;18.206;2023-04-25T03:27:21;3.50;;;2.65;;
23394;SDS011;11870;53.084;18.206;2023-04-25T03:29:47;2.88;;;2.28;;
23394;SDS011;11870;53.084;18.206;2023-04-25T03:32:12;3.70;;;2.30;;
23394;SDS011;11870;53.084;18.206;2023-04-25T03:34:38;3.42;;;2.22;;
23394;SDS011;11870;53.084;18.206;2023-04-25T03:37:05;3.85;;;2.38;;
23394;SDS011;11870;53.084;18.206;2023-04-25T03:39:31;2.75;;;1.90;;
23394;SDS011;11870;53.084;18.206;2023-04-25T03:41:56;2.92;;;2.20;;
23394;SDS011;11870;53.084;18.206;2023-04-25T03:44:23;2.78;;;2.05;;
23394;SDS011;11870;53.084;18.206;2023-04-25T03:46:49;3.10;;;2.25;;
23394;SDS011;11870;53.084;18.206;2023-04-25T03:49:16;2.97;;;2.00;;
23394;SDS011;11870;53.084;18.206;2023-04-25T03:51:41;2.17;;;1.98;;
23394;SDS011;11870;53.084;18.206;2023-04-25T03:54:08;2.70;;;2.15;;
23394;SDS011;11870;53.084;18.206;2023-04-25T03:56:33;2.47;;;1.90;;
23394;SDS011;11870;53.084;18.206;2023-04-25T03:59:00;2.50;;;1.98;;
23394;SDS011;11870;53.084;18.206;2023-04-25T04:01:25;3.55;;;1.80;;
23394;SDS011;11870;53.084;18.206;2023-04-25T04:03:51;3.35;;;1.65;;
23394;SDS011;11870;53.084;18.206;2023-04-25T04:06:17;2.00;;;1.80;;
23394;SDS011;11870;53.084;18.206;2023-04-25T04:08:44;2.08;;;1.85;;
23394;SDS011;11870;53.084;18.206;2023-04-25T04:11:10;2.42;;;1.95;;
23394;SDS011;11870;53.084;18.206;2023-04-25T04:13:36;2.83;;;1.77;;
23394;SDS011;11870;53.084;18.206;2023-04-25T04:16:01;3.83;;;1.60;;
23394;SDS011;11870;53.084;18.206;2023-04-25T04:18:29;2.03;;;1.60;;
23394;SDS011;11870;53.084;18.206;2023-04-25T04:20:55;2.22;;;1.63;;
23394;SDS011;11870;53.084;18.206;2023-04-25T04:23:23;2.85;;;1.80;;
23394;SDS011;11870;53.084;18.206;2023-04-25T04:25:49;2.30;;;1.88;;
23394;SDS011;11870;53.084;18.206;2023-04-25T04:28:15;1.60;;;1.40;;
23394;SDS011;11870;53.084;18.206;2023-04-25T04:30:41;1.50;;;1.40;;
23394;SDS011;11870;53.084;18.206;2023-04-25T04:33:12;2.35;;;1.50;;
23394;SDS011;11870;53.084;18.206;2023-04-25T04:35:40;2.17;;;1.63;;
23394;SDS011;11870;53.084;18.206;2023-04-25T04:38:07;1.75;;;1.40;;
23394;SDS011;11870;53.084;18.206;2023-04-25T04:40:33;2.03;;;1.50;;
23394;SDS011;11870;53.084;18.206;2023-04-25T04:42:59;1.33;;;1.23;;
23394;SDS011;11870;53.084;18.206;2023-04-25T04:45:24;1.70;;;1.60;;
23394;SDS011;11870;53.084;18.206;2023-04-25T04:47:53;3.90;;;1.95;;
23394;SDS011;11870;53.084;18.206;2023-04-25T04:50:20;4.53;;;2.20;;
23394;SDS011;11870;53.084;18.206;2023-04-25T04:52:46;6.97;;;4.28;;
23394;SDS011;11870;53.084;18.206;2023-04-25T04:55:12;6.13;;;3.42;;
23394;SDS011;11870;53.084;18.206;2023-04-25T04:57:38;6.35;;;2.55;;
23394;SDS011;11870;53.084;18.206;2023-04-25T05:00:05;4.68;;;2.58;;
23394;SDS011;11870;53.084;18.206;2023-04-25T05:02:37;5.03;;;2.45;;
23394;SDS011;11870;53.084;18.206;2023-04-25T05:05:04;4.15;;;2.13;;
23394;SDS011;11870;53.084;18.206;2023-04-25T05:07:32;4.78;;;2.08;;
23394;SDS011;11870;53.084;18.206;2023-04-25T05:09:58;3.17;;;1.52;;
23394;SDS011;11870;53.084;18.206;2023-04-25T05:12:24;2.38;;;1.85;;
23394;SDS011;11870;53.084;18.206;2023-04-25T05:14:49;2.60;;;2.00;;
23394;SDS011;11870;53.084;18.206;2023-04-25T05:17:15;2.67;;;2.00;;
23394;SDS011;11870;53.084;18.206;2023-04-25T05:19:41;2.70;;;1.50;;
23394;SDS011;11870;53.084;18.206;2023-04-25T05:22:07;1.90;;;1.50;;
23394;SDS011;11870;53.084;18.206;2023-04-25T05:24:33;2.80;;;2.08;;
23394;SDS011;11870;53.084;18.206;2023-04-25T05:26:59;2.63;;;1.83;;
23394;SDS011;11870;53.084;18.206;2023-04-25T05:29:25;2.72;;;1.70;;
23394;SDS011;11870;53.084;18.206;2023-04-25T05:31:51;3.17;;;1.80;;
23394;SDS011;11870;53.084;18.206;2023-04-25T05:34:18;2.17;;;1.58;;
23394;SDS011;11870;53.084;18.206;2023-04-25T05:36:44;2.92;;;1.90;;
23394;SDS011;11870;53.084;18.206;2023-04-25T05:39:13;3.60;;;1.85;;
23394;SDS011;11870;53.084;18.206;2023-04-25T05:41:43;4.07;;;1.80;;
23394;SDS011;11870;53.084;18.206;2023-04-25T05:44:09;3.33;;;2.05;;
23394;SDS011;11870;53.084;18.206;2023-04-25T05:46:35;3.40;;;1.90;;
23394;SDS011;11870;53.084;18.206;2023-04-25T05:49:01;4.03;;;2.33;;
23394;SDS011;11870;53.084;18.206;2023-04-25T05:51:27;2.25;;;1.98;;
23394;SDS011;11870;53.084;18.206;2023-04-25T05:53:53;3.20;;;2.10;;
23394;SDS011;11870;53.084;18.206;2023-04-25T05:56:19;3.83;;;2.10;;
23394;SDS011;11870;53.084;18.206;2023-04-25T05:58:45;5.38;;;2.08;;
23394;SDS011;11870;53.084;18.206;2023-04-25T06:01:11;4.40;;;2.05;;
23394;SDS011;11870;53.084;18.206;2023-04-25T06:03:37;3.05;;;1.95;;
23394;SDS011;11870;53.084;18.206;2023-04-25T06:06:04;3.88;;;1.98;;
23394;SDS011;11870;53.084;18.206;2023-04-25T06:08:30;3.08;;;2.03;;
23394;SDS011;11870;53.084;18.206;2023-04-25T06:10:56;3.47;;;1.95;;
23394;SDS011;11870;53.084;18.206;2023-04-25T06:13:22;2.85;;;2.00;;
23394;SDS011;11870;53.084;18.206;2023-04-25T06:15:48;3.47;;;1.75;;
23394;SDS011;11870;53.084;18.206;2023-04-25T06:18:14;6.35;;;2.42;;
23394;SDS011;11870;53.084;18.206;2023-04-25T06:20:40;2.20;;;1.58;;
23394;SDS011;11870;53.084;18.206;2023-04-25T06:23:06;2.47;;;1.60;;
23394;SDS011;11870;53.084;18.206;2023-04-25T06:25:32;3.15;;;1.80;;
23394;SDS011;11870;53.084;18.206;2023-04-25T06:27:58;3.85;;;1.92;;
23394;SDS011;11870;53.084;18.206;2023-04-25T06:30:24;2.88;;;1.80;;
23394;SDS011;11870;53.084;18.206;2023-04-25T06:32:51;3.70;;;2.10;;
23394;SDS011;11870;53.084;18.206;2023-04-25T06:35:18;2.67;;;1.60;;
23394;SDS011;11870;53.084;18.206;2023-04-25T06:37:44;2.63;;;1.77;;
23394;SDS011;11870;53.084;18.206;2023-04-25T06:40:11;3.78;;;2.50;;
23394;SDS011;11870;53.084;18.206;2023-04-25T06:42:37;3.38;;;1.90;;
23394;SDS011;11870;53.084;18.206;2023-04-25T06:45:03;4.03;;;2.00;;
23394;SDS011;11870;53.084;18.206;2023-04-25T06:47:29;1.92;;;1.60;;
23394;SDS011;11870;53.084;18.206;2023-04-25T06:49:55;3.80;;;1.80;;
23394;SDS011;11870;53.084;18.206;2023-04-25T06:52:22;2.25;;;1.60;;
23394;SDS011;11870;53.084;18.206;2023-04-25T06:54:48;3.15;;;1.77;;
23394;SDS011;11870;53.084;18.206;2023-04-25T06:57:14;4.68;;;1.58;;
23394;SDS011;11870;53.084;18.206;2023-04-25T06:59:41;3.60;;;2.25;;
23394;SDS011;11870;53.084;18.206;2023-04-25T07:02:06;2.60;;;1.73;;
23394;SDS011;11870;53.084;18.206;2023-04-25T07:04:33;2.30;;;1.90;;
23394;SDS011;11870;53.084;18.206;2023-04-25T07:06:59;3.13;;;2.45;;
23394;SDS011;11870;53.084;18.206;2023-04-25T07:09:28;3.80;;;2.10;;
23394;SDS011;11870;53.084;18.206;2023-04-25T07:11:53;2.53;;;1.90;;
23394;SDS011;11870;53.084;18.206;2023-04-25T07:14:20;1.95;;;1.67;;
23394;SDS011;11870;53.084;18.206;2023-04-25T07:16:45;3.00;;;1.90;;
23394;SDS011;11870;53.084;18.206;2023-04-25T07:19:12;2.05;;;1.85;;
23394;SDS011;11870;53.084;18.206;2023-04-25T07:21:37;4.78;;;1.70;;
23394;SDS011;11870;53.084;18.206;2023-04-25T07:24:03;2.22;;;1.67;;
23394;SDS011;11870;53.084;18.206;2023-04-25T07:26:30;2.50;;;1.55;;
23394;SDS011;11870;53.084;18.206;2023-04-25T07:28:55;1.85;;;1.40;;
23394;SDS011;11870;53.084;18.206;2023-04-25T07:31:21;1.67;;;1.55;;
23394;SDS011;11870;53.084;18.206;2023-04-25T07:33:48;2.05;;;1.35;;
23394;SDS011;11870;53.084;18.206;2023-04-25T07:36:14;2.28;;;1.60;;
23394;SDS011;11870;53.084;18.206;2023-04-25T07:38:41;1.98;;;1.60;;
23394;SDS011;11870;53.084;18.206;2023-04-25T07:41:06;2.25;;;1.52;;
23394;SDS011;11870;53.084;18.206;2023-04-25T07:43:32;1.90;;;1.60;;
23394;SDS011;11870;53.084;18.206;2023-04-25T07:45:58;2.67;;;1.80;;
23394;SDS011;11870;53.084;18.206;2023-04-25T07:48:24;2.13;;;1.60;;
23394;SDS011;11870;53.084;18.206;2023-04-25T07:50:50;2.13;;;1.65;;
23394;SDS011;11870;53.084;18.206;2023-04-25T07:53:16;1.77;;;1.67;;
23394;SDS011;11870;53.084;18.206;2023-04-25T07:55:43;3.22;;;1.70;;
23394;SDS011;11870;53.084;18.206;2023-04-25T07:58:11;1.90;;;1.40;;
23394;SDS011;11870;53.084;18.206;2023-04-25T08:00:38;2.10;;;1.48;;
23394;SDS011;11870;53.084;18.206;2023-04-25T08:03:03;3.42;;;2.00;;
23394;SDS011;11870;53.084;18.206;2023-04-25T08:05:29;1.63;;;1.48;;
23394;SDS011;11870;53.084;18.206;2023-04-25T08:07:55;2.58;;;1.73;;
23394;SDS011;11870;53.084;18.206;2023-04-25T08:10:22;3.85;;;2.10;;
23394;SDS011;11870;53.084;18.206;2023-04-25T08:12:48;2.45;;;1.70;;
23394;SDS011;11870;53.084;18.206;2023-04-25T08:15:14;2.20;;;1.70;;
23394;SDS011;11870;53.084;18.206;2023-04-25T08:17:42;2.50;;;1.50;;
23394;SDS011;11870;53.084;18.206;2023-04-25T08:20:12;2.92;;;1.80;;
23394;SDS011;11870;53.084;18.206;2023-04-25T08:22:37;2.60;;;1.45;;
23394;SDS011;11870;53.084;18.206;2023-04-25T08:25:04;1.90;;;1.40;;
23394;SDS011;11870;53.084;18.206;2023-04-25T08:27:30;3.63;;;1.63;;
23394;SDS011;11870;53.084;18.206;2023-04-25T08:29:56;9.38;;;2.95;;
23394;SDS011;11870;53.084;18.206;2023-04-25T08:32:23;13.80;;;7.25;;
23394;SDS011;11870;53.084;18.206;2023-04-25T08:34:49;10.57;;;5.70;;
23394;SDS011;11870;53.084;18.206;2023-04-25T08:37:16;5.30;;;3.15;;
23394;SDS011;11870;53.084;18.206;2023-04-25T08:39:45;10.48;;;5.10;;
23394;SDS011;11870;53.084;18.206;2023-04-25T08:42:12;4.13;;;2.70;;
23394;SDS011;11870;53.084;18.206;2023-04-25T08:44:38;2.50;;;1.67;;
23394;SDS011;11870;53.084;18.206;2023-04-25T08:47:04;5.63;;;3.00;;
23394;SDS011;11870;53.084;18.206;2023-04-25T08:49:34;3.10;;;2.00;;
23394;SDS011;11870;53.084;18.206;2023-04-25T08:52:00;2.55;;;2.03;;
23394;SDS011;11870;53.084;18.206;2023-04-25T08:54:29;4.00;;;2.70;;
23394;SDS011;11870;53.084;18.206;2023-04-25T08:56:57;2.92;;;2.30;;
23394;SDS011;11870;53.084;18.206;2023-04-25T08:59:27;6.82;;;3.35;;
23394;SDS011;11870;53.084;18.206;2023-04-25T09:01:54;6.63;;;3.35;;
23394;SDS011;11870;53.084;18.206;2023-04-25T09:04:20;4.55;;;2.33;;
23394;SDS011;11870;53.084;18.206;2023-04-25T09:06:46;3.03;;;2.08;;
23394;SDS011;11870;53.084;18.206;2023-04-25T09:09:13;3.00;;;2.22;;
23394;SDS011;11870;53.084;18.206;2023-04-25T09:11:39;5.05;;;2.60;;
23394;SDS011;11870;53.084;18.206;2023-04-25T09:14:13;4.15;;;2.72;;
23394;SDS011;11870;53.084;18.206;2023-04-25T09:21:56;3.10;;;2.20;;
23394;SDS011;11870;53.084;18.206;2023-04-25T09:24:57;3.53;;;2.42;;
23394;SDS011;11870;53.084;18.206;2023-04-25T09:27:20;4.80;;;2.10;;
23394;SDS011;11870;53.084;18.206;2023-04-25T09:29:56;2.97;;;1.70;;
23394;SDS011;11870;53.084;18.206;2023-04-25T09:32:23;4.00;;;2.42;;
23394;SDS011;11870;53.084;18.206;2023-04-25T09:34:57;2.47;;;1.80;;
23394;SDS011;11870;53.084;18.206;2023-04-25T09:37:24;6.25;;;1.90;;
23394;SDS011;11870;53.084;18.206;2023-04-25T09:39:57;3.42;;;1.60;;
23394;SDS011;11870;53.084;18.206;2023-04-25T09:42:30;2.85;;;1.70;;
23394;SDS011;11870;53.084;18.206;2023-04-25T09:44:57;2.85;;;1.95;;
23394;SDS011;11870;53.084;18.206;2023-04-25T09:47:24;2.47;;;1.80;;
23394;SDS011;11870;53.084;18.206;2023-04-25T09:49:52;2.80;;;1.90;;
23394;SDS011;11870;53.084;18.206;2023-04-25T09:52:19;3.42;;;1.80;;
23394;SDS011;11870;53.084;18.206;2023-04-25T09:54:50;5.68;;;1.75;;
23394;SDS011;11870;53.084;18.206;2023-04-25T09:57:17;4.05;;;1.90;;
23394;SDS011;11870;53.084;18.206;2023-04-25T09:59:47;2.63;;;1.75;;
23394;SDS011;11870;53.084;18.206;2023-04-25T10:02:19;2.20;;;1.60;;
23394;SDS011;11870;53.084;18.206;2023-04-25T10:04:50;5.43;;;1.90;;
23394;SDS011;11870;53.084;18.206;2023-04-25T10:07:19;2.90;;;1.85;;
23394;SDS011;11870;53.084;18.206;2023-04-25T10:09:48;2.45;;;1.83;;
23394;SDS011;11870;53.084;18.206;2023-04-25T10:12:17;2.55;;;1.60;;
23394;SDS011;11870;53.084;18.206;2023-04-25T10:14:44;3.63;;;1.77;;
23394;SDS011;11870;53.084;18.206;2023-04-25T10:17:11;2.10;;;1.67;;
23394;SDS011;11870;53.084;18.206;2023-04-25T10:19:37;2.55;;;1.90;;
23394;SDS011;11870;53.084;18.206;2023-04-25T10:24:31;2.08;;;1.63;;
23394;SDS011;11870;53.084;18.206;2023-04-25T10:26:57;4.72;;;2.08;;
23394;SDS011;11870;53.084;18.206;2023-04-25T10:29:24;1.75;;;1.50;;
23394;SDS011;11870;53.084;18.206;2023-04-25T10:31:51;2.67;;;1.70;;
23394;SDS011;11870;53.084;18.206;2023-04-25T10:34:17;3.03;;;1.52;;
23394;SDS011;11870;53.084;18.206;2023-04-25T10:36:46;3.03;;;1.75;;
23394;SDS011;11870;53.084;18.206;2023-04-25T10:39:21;3.15;;;1.40;;
23394;SDS011;11870;53.084;18.206;2023-04-25T10:41:57;2.35;;;1.60;;
23394;SDS011;11870;53.084;18.206;2023-04-25T10:44:27;2.03;;;1.40;;
23394;SDS011;11870;53.084;18.206;2023-04-25T10:46:59;2.28;;;1.38;;
23394;SDS011;11870;53.084;18.206;2023-04-25T10:49:41;3.47;;;1.50;;
23394;SDS011;11870;53.084;18.206;2023-04-25T10:52:11;4.22;;;1.90;;
23394;SDS011;11870;53.084;18.206;2023-04-25T10:55:02;2.03;;;1.83;;
23394;SDS011;11870;53.084;18.206;2023-04-25T11:00:25;3.97;;;2.00;;
23394;SDS011;11870;53.084;18.206;2023-04-25T11:02:55;5.03;;;1.90;;
23394;SDS011;11870;53.084;18.206;2023-04-25T11:05:31;6.07;;;1.77;;
23394;SDS011;11870;53.084;18.206;2023-04-25T11:07:58;3.13;;;1.50;;
23394;SDS011;11870;53.084;18.206;2023-04-25T11:10:32;4.03;;;1.80;;
23394;SDS011;11870;53.084;18.206;2023-04-25T11:13:00;5.28;;;2.25;;
23394;SDS011;11870;53.084;18.206;2023-04-25T11:15:27;2.17;;;1.67;;
23394;SDS011;11870;53.084;18.206;2023-04-25T11:17:53;4.50;;;2.30;;
23394;SDS011;11870;53.084;18.206;2023-04-25T11:20:21;3.53;;;1.85;;
23394;SDS011;11870;53.084;18.206;2023-04-25T11:22:47;4.00;;;2.13;;
23394;SDS011;11870;53.084;18.206;2023-04-25T11:25:14;5.35;;;1.83;;
23394;SDS011;11870;53.084;18.206;2023-04-25T11:27:51;2.10;;;1.80;;
23394;SDS011;11870;53.084;18.206;2023-04-25T11:30:22;3.13;;;1.63;;
23394;SDS011;11870;53.084;18.206;2023-04-25T11:32:50;4.07;;;1.88;;
23394;SDS011;11870;53.084;18.206;2023-04-25T11:35:17;5.70;;;2.72;;
23394;SDS011;11870;53.084;18.206;2023-04-25T11:37:44;3.38;;;1.77;;
23394;SDS011;11870;53.084;18.206;2023-04-25T11:40:11;3.22;;;1.90;;
23394;SDS011;11870;53.084;18.206;2023-04-25T11:42:37;2.88;;;2.00;;
23394;SDS011;11870;53.084;18.206;2023-04-25T11:45:13;2.67;;;1.75;;
23394;SDS011;11870;53.084;18.206;2023-04-25T11:47:39;2.22;;;2.00;;
23394;SDS011;11870;53.084;18.206;2023-04-25T11:50:06;2.83;;;1.95;;
23394;SDS011;11870;53.084;18.206;2023-04-25T11:52:39;4.05;;;2.10;;
23394;SDS011;11870;53.084;18.206;2023-04-25T11:55:14;3.15;;;1.98;;
23394;SDS011;11870;53.084;18.206;2023-04-25T11:57:41;3.55;;;2.25;;
23394;SDS011;11870;53.084;18.206;2023-04-25T12:02:36;3.03;;;2.22;;
23394;SDS011;11870;53.084;18.206;2023-04-25T12:05:06;5.60;;;2.20;;
23394;SDS011;11870;53.084;18.206;2023-04-25T12:07:33;2.22;;;1.77;;
23394;SDS011;11870;53.084;18.206;2023-04-25T12:10:04;3.13;;;1.88;;
23394;SDS011;11870;53.084;18.206;2023-04-25T12:12:36;4.55;;;1.70;;
23394;SDS011;11870;53.084;18.206;2023-04-25T12:15:10;2.55;;;1.60;;
23394;SDS011;11870;53.084;18.206;2023-04-25T12:17:40;4.90;;;1.77;;
23394;SDS011;11870;53.084;18.206;2023-04-25T12:20:17;3.15;;;1.75;;
23394;SDS011;11870;53.084;18.206;2023-04-25T12:22:46;3.80;;;1.83;;
23394;SDS011;11870;53.084;18.206;2023-04-25T12:25:13;6.07;;;1.80;;
23394;SDS011;11870;53.084;18.206;2023-04-25T12:28:12;5.25;;;1.83;;
23394;SDS011;11870;53.084;18.206;2023-04-25T12:30:56;2.75;;;1.90;;
23394;SDS011;11870;53.084;18.206;2023-04-25T12:33:23;1.90;;;1.70;;
23394;SDS011;11870;53.084;18.206;2023-04-25T12:35:50;3.58;;;2.10;;
23394;SDS011;11870;53.084;18.206;2023-04-25T12:38:22;3.03;;;2.15;;
23394;SDS011;11870;53.084;18.206;2023-04-25T12:40:49;4.50;;;2.53;;
23394;SDS011;11870;53.084;18.206;2023-04-25T12:43:15;3.28;;;2.03;;
23394;SDS011;11870;53.084;18.206;2023-04-25T12:45:42;3.10;;;1.92;;
23394;SDS011;11870;53.084;18.206;2023-04-25T12:48:07;2.42;;;1.95;;
23394;SDS011;11870;53.084;18.206;2023-04-25T12:50:34;3.20;;;2.20;;
23394;SDS011;11870;53.084;18.206;2023-04-25T12:52:59;5.07;;;2.15;;
23394;SDS011;11870;53.084;18.206;2023-04-25T12:55:26;5.07;;;2.20;;
23394;SDS011;11870;53.084;18.206;2023-04-25T12:57:52;2.78;;;1.85;;
23394;SDS011;11870;53.084;18.206;2023-04-25T13:00:18;2.70;;;1.50;;
23394;SDS011;11870;53.084;18.206;2023-04-25T13:02:45;3.80;;;1.80;;
23394;SDS011;11870;53.084;18.206;2023-04-25T13:05:12;2.42;;;2.00;;
23394;SDS011;11870;53.084;18.206;2023-04-25T13:07:38;2.13;;;1.80;;
23394;SDS011;11870;53.084;18.206;2023-04-25T13:10:04;2.00;;;1.70;;
23394;SDS011;11870;53.084;18.206;2023-04-25T13:12:31;4.65;;;1.85;;
23394;SDS011;11870;53.084;18.206;2023-04-25T13:14:57;2.75;;;2.00;;
23394;SDS011;11870;53.084;18.206;2023-04-25T13:17:23;2.58;;;1.83;;
23394;SDS011;11870;53.084;18.206;2023-04-25T13:19:49;4.45;;;1.90;;
23394;SDS011;11870;53.084;18.206;2023-04-25T13:22:15;2.13;;;1.88;;
23394;SDS011;11870;53.084;18.206;2023-04-25T13:24:42;3.72;;;2.08;;
23394;SDS011;11870;53.084;18.206;2023-04-25T13:27:08;3.58;;;2.25;;
23394;SDS011;11870;53.084;18.206;2023-04-25T13:29:35;2.17;;;1.70;;
23394;SDS011;11870;53.084;18.206;2023-04-25T13:32:01;3.50;;;1.80;;
23394;SDS011;11870;53.084;18.206;2023-04-25T13:34:30;2.20;;;1.73;;
23394;SDS011;11870;53.084;18.206;2023-04-25T13:36:56;2.63;;;1.90;;
23394;SDS011;11870;53.084;18.206;2023-04-25T13:39:22;2.17;;;1.75;;
23394;SDS011;11870;53.084;18.206;2023-04-25T13:41:48;3.45;;;2.20;;
23394;SDS011;11870;53.084;18.206;2023-04-25T13:44:14;3.35;;;2.05;;
23394;SDS011;11870;53.084;18.206;2023-04-25T13:46:40;2.60;;;1.90;;
23394;SDS011;11870;53.084;18.206;2023-04-25T13:49:07;4.53;;;2.30;;
23394;SDS011;11870;53.084;18.206;2023-04-25T13:51:32;3.90;;;3.05;;
23394;SDS011;11870;53.084;18.206;2023-04-25T13:53:59;2.72;;;2.08;;
23394;SDS011;11870;53.084;18.206;2023-04-25T13:56:25;5.20;;;2.95;;
23394;SDS011;11870;53.084;18.206;2023-04-25T13:58:51;5.18;;;2.85;;
23394;SDS011;11870;53.084;18.206;2023-04-25T14:01:17;5.35;;;2.78;;
23394;SDS011;11870;53.084;18.206;2023-04-25T14:03:44;3.88;;;2.90;;
23394;SDS011;11870;53.084;18.206;2023-04-25T14:06:10;4.45;;;2.28;;
23394;SDS011;11870;53.084;18.206;2023-04-25T14:08:38;4.47;;;2.58;;
23394;SDS011;11870;53.084;18.206;2023-04-25T14:11:04;4.38;;;2.75;;
23394;SDS011;11870;53.084;18.206;2023-04-25T14:13:31;4.90;;;2.45;;
23394;SDS011;11870;53.084;18.206;2023-04-25T14:15:56;4.43;;;2.70;;
23394;SDS011;11870;53.084;18.206;2023-04-25T14:18:23;4.03;;;3.08;;
23394;SDS011;11870;53.084;18.206;2023-04-25T14:20:48;4.72;;;2.60;;
23394;SDS011;11870;53.084;18.206;2023-04-25T14:23:18;4.32;;;2.40;;
23394;SDS011;11870;53.084;18.206;2023-04-25T14:25:44;3.83;;;2.45;;
23394;SDS011;11870;53.084;18.206;2023-04-25T14:28:10;5.53;;;2.58;;
23394;SDS011;11870;53.084;18.206;2023-04-25T14:30:36;4.45;;;2.35;;
23394;SDS011;11870;53.084;18.206;2023-04-25T14:33:02;4.20;;;2.53;;
23394;SDS011;11870;53.084;18.206;2023-04-25T14:35:29;2.55;;;1.80;;
23394;SDS011;11870;53.084;18.206;2023-04-25T14:37:55;5.10;;;2.10;;
23394;SDS011;11870;53.084;18.206;2023-04-25T14:40:21;2.83;;;2.03;;
23394;SDS011;11870;53.084;18.206;2023-04-25T14:42:48;3.15;;;1.90;;
23394;SDS011;11870;53.084;18.206;2023-04-25T14:45:16;2.90;;;1.70;;
23394;SDS011;11870;53.084;18.206;2023-04-25T14:47:42;3.53;;;1.65;;